Time;durP1;ratioP1;P1;durP2;ratioP2;P2;SDS_P1;SDS_P2;PMS_P1;PMS_P2;Temp;Humidity;BMP_temperature;BMP_pressure;BME280_temperature;BME280_humidity;BME280_pressure;Samples;Min_cycle;Max_cycle;Signal;HPM_P1;HPM_P2
2023/11/22 00:01:00;;;;;;;;;48.33;41.00;;;;;4.47;100.00;99339.22;6279243;20;2866951;-46
2023/11/22 00:03:30;;;;;;;;;55.33;38.00;;;;;4.66;100.00;99336.69;6309125;20;3618116;-46
2023/11/22 00:05:59;;;;;;;;;48.50;35.00;;;;;4.71;100.00;99344.44;6309480;20;2857595;-40
2023/11/22 00:08:31;;;;;;;;;51.33;38.00;;;;;4.68;100.00;99345.44;6281014;20;3635206;-44
2023/11/22 00:11:01;;;;;;;;;54.00;39.67;;;;;4.64;100.00;99345.66;6309221;20;2866090;-41
2023/11/22 00:13:32;;;;;;;;;59.67;42.33;;;;;4.68;100.00;99342.78;6312178;20;3640874;-41
2023/11/22 00:16:01;;;;;;;;;62.67;46.00;;;;;4.87;100.00;99347.28;6309675;20;2859692;-41
2023/11/22 00:18:30;;;;;;;;;35.00;29.50;;;;;4.87;100.00;99353.50;6314235;20;2819189;-41
2023/11/22 00:21:00;;;;;;;;;54.67;42.00;;;;;4.72;100.00;99343.53;6279235;20;2892315;-42
2023/11/22 00:23:30;;;;;;;;;59.33;46.00;;;;;4.78;100.00;99349.41;6312070;20;3611894;-41
2023/11/22 00:25:59;;;;;;;;;56.00;40.33;;;;;4.87;100.00;99348.19;6314874;20;2874359;-41
2023/11/22 00:28:29;;;;;;;;;64.00;44.33;;;;;4.99;100.00;99347.63;6315767;20;2874294;-38
2023/11/22 00:30:59;;;;;;;;;54.00;38.67;;;;;4.92;100.00;99351.47;6315064;20;3614895;-40
2023/11/22 00:33:28;;;;;;;;;48.00;38.00;;;;;4.74;100.00;99358.47;6314196;20;2863856;-39
2023/11/22 00:35:58;;;;;;;;;44.67;37.33;;;;;4.64;100.00;99346.50;6281516;20;3623187;-39
2023/11/22 00:38:28;;;;;;;;;52.67;40.00;;;;;4.50;100.00;99344.44;6316889;20;2871451;-39
2023/11/22 00:40:59;;;;;;;;;42.67;37.33;;;;;4.72;100.00;99338.22;6316780;20;3611733;-38
2023/11/22 00:43:29;;;;;;;;;61.33;39.00;;;;;4.80;100.00;99346.72;6313873;20;3625395;-39
2023/11/22 00:45:59;;;;;;;;;51.33;39.33;;;;;4.68;100.00;99347.22;6316686;20;3612918;-41
2023/11/22 00:48:29;;;;;;;;;49.00;35.33;;;;;4.82;100.00;99340.41;6316276;20;3632591;-49
2023/11/22 00:50:58;;;;;;;;;44.50;36.00;;;;;4.56;100.00;99348.63;6316767;20;2851354;-47
2023/11/22 00:53:27;;;;;;;;;40.00;35.67;;;;;4.51;100.00;99346.16;6284932;20;2859650;-49
2023/11/22 00:55:57;;;;;;;;;58.00;40.00;;;;;4.76;100.00;99345.09;6316401;20;3631911;-46
2023/11/22 00:58:27;;;;;;;;;49.33;37.67;;;;;4.80;100.00;99344.06;6312415;20;3630470;-46
2023/11/22 01:00:57;;;;;;;;;47.00;28.33;;;;;4.83;100.00;99339.44;6315008;20;2878553;-44
2023/11/22 01:03:25;;;;;;;;;39.00;33.00;;;;;4.70;100.00;99340.91;6314952;20;2574329;-44
2023/11/22 01:05:54;;;;;;;;;42.50;31.50;;;;;4.67;100.00;99329.56;6284238;20;2855537;-44
2023/11/22 01:08:23;;;;;;;;;44.00;36.00;;;;;4.84;100.00;99333.22;6285169;20;2748300;-45
2023/11/22 01:10:52;;;;;;;;;44.00;31.00;;;;;5.03;100.00;99338.59;6314541;20;2852368;-45
2023/11/22 01:13:22;;;;;;;;;40.67;31.33;;;;;4.51;100.00;99340.84;6282828;20;2869110;-47
2023/11/22 01:15:51;;;;;;;;;41.33;31.00;;;;;4.35;100.00;99340.63;6313825;20;3609640;-47
2023/11/22 01:18:21;;;;;;;;;44.67;33.33;;;;;4.55;100.00;99337.09;6315593;20;3610866;-46
2023/11/22 01:20:51;;;;;;;;;37.67;33.67;;;;;4.92;100.00;99351.47;6312285;20;2864050;-47
2023/11/22 01:23:20;;;;;;;;;46.33;33.67;;;;;5.13;100.00;99347.00;6312177;20;2879545;-47
2023/11/22 01:25:50;;;;;;;;;53.33;39.00;;;;;4.59;100.00;99360.00;6315126;20;2850447;-44
2023/11/22 01:28:20;;;;;;;;;46.67;34.33;;;;;4.51;100.00;99354.13;6312004;20;3611745;-43
2023/11/22 01:30:50;;;;;;;;;49.33;31.33;;;;;5.09;100.00;99360.53;6314481;20;3621110;-41
2023/11/22 01:33:20;;;;;;;;;32.00;30.33;;;;;4.56;100.00;99353.94;6315946;20;2861825;-44
2023/11/22 01:35:50;;;;;;;;;53.33;31.67;;;;;4.75;100.00;99356.69;6310455;20;3631503;-44
2023/11/22 01:38:19;;;;;;;;;29.50;26.00;;;;;5.15;100.00;99358.44;6314500;20;2848312;-44
2023/11/22 01:40:52;;;;;;;;;36.00;29.67;;;;;4.77;100.00;99355.69;6284489;20;2865891;-45
2023/11/22 01:43:23;;;;;;;;;35.67;32.00;;;;;4.97;100.00;99364.59;6309985;20;2856622;-45
2023/11/22 01:45:56;;;;;;;;;44.67;33.00;;;;;5.07;100.00;99360.59;6311903;20;3613779;-45
2023/11/22 01:48:26;;;;;;;;;48.00;39.00;;;;;5.31;100.00;99363.09;6314698;20;2850270;-42
2023/11/22 01:50:55;;;;;;;;;38.00;30.50;;;;;5.06;100.00;99359.72;6282573;20;2841969;-42
2023/11/22 01:53:25;;;;;;;;;39.50;34.00;;;;;5.19;100.00;99359.19;6281322;20;2856534;-41
2023/11/22 01:55:56;;;;;;;;;43.33;32.67;;;;;5.12;100.00;99355.94;6284061;20;2875428;-43
2023/11/22 01:58:25;;;;;;;;;31.00;22.00;;;;;5.04;100.00;99350.94;6309174;20;2849259;-41
2023/11/22 02:00:54;;;;;;;;;42.00;33.00;;;;;5.03;100.00;99348.38;6281512;20;2861775;-42
2023/11/22 02:03:23;;;;;;;;;32.50;29.50;;;;;5.02;100.00;99347.47;6279978;20;2847249;-49
2023/11/22 02:05:52;;;;;;;;;33.00;25.00;;;;;5.02;100.00;99347.47;6279903;20;2844015;-47
2023/11/22 02:08:22;;;;;;;;;47.67;31.00;;;;;4.92;100.00;99347.94;6283392;20;2887772;-49
2023/11/22 02:11:05;;;;;;;;;34.00;31.50;;;;;4.93;100.00;99355.88;6314050;20;2859727;-49
2023/11/22 02:13:34;;;;;;;;;36.50;28.50;;;;;4.80;100.00;99358.22;6282164;20;2863855;-47
2023/11/22 02:16:04;;;;;;;;;37.00;30.00;;;;;4.82;100.00;99352.84;6282138;20;2866964;-48
2023/11/22 02:18:34;;;;;;;;;35.50;31.00;;;;;4.69;100.00;99360.47;6312071;20;2846327;-46
2023/11/22 02:21:03;;;;;;;;;39.50;30.00;;;;;4.16;100.00;99359.13;6283501;20;2861731;-50
2023/11/22 02:23:33;;;;;;;;;41.67;33.33;;;;;4.20;100.00;99361.66;6282467;20;2872180;-47
2023/11/22 02:26:02;;;;;;;;;43.50;36.00;;;;;4.32;100.00;99371.78;6315008;20;2863805;-49
2023/11/22 02:28:32;;;;;;;;;39.33;37.33;;;;;4.69;100.00;99371.13;6283109;20;2862912;-47
2023/11/22 02:31:01;;;;;;;;;46.67;39.33;;;;;4.56;100.00;99370.75;6314860;20;3594006;-49
2023/11/22 02:33:30;;;;;;;;;35.00;27.50;;;;;4.42;100.00;99366.94;6280792;20;2853442;-48
2023/11/22 02:36:01;;;;;;;;;44.00;37.33;;;;;4.31;100.00;99368.25;6280800;20;2881621;-47
2023/11/22 02:38:31;;;;;;;;;46.67;37.00;;;;;3.97;100.00;99372.25;6314095;20;3621164;-46
2023/11/22 02:41:00;;;;;;;;;45.33;33.33;;;;;4.49;100.00;99366.63;6314550;20;3618018;-49
2023/11/22 02:43:29;;;;;;;;;37.50;32.00;;;;;4.50;100.00;99362.16;6280111;20;2855559;-47
2023/11/22 02:45:59;;;;;;;;;45.00;34.67;;;;;4.49;100.00;99365.75;6280080;20;2880522;-40
2023/11/22 02:48:29;;;;;;;;;38.33;29.67;;;;;4.12;100.00;99362.81;6314263;20;2869198;-39
2023/11/22 02:50:57;;;;;;;;;35.00;29.50;;;;;4.06;100.00;99379.03;6312209;20;2841997;-40
2023/11/22 02:53:27;;;;;;;;;34.00;29.00;;;;;4.03;100.00;99381.81;6281898;20;2843990;-40
2023/11/22 02:56:00;;;;;;;;;40.00;32.67;;;;;3.95;100.00;99378.59;6279554;20;2871091;-39
2023/11/22 02:58:30;;;;;;;;;43.33;38.00;;;;;3.80;100.00;99385.34;6309451;20;2867262;-39
2023/11/22 03:01:01;;;;;;;;;42.33;38.00;;;;;3.73;100.00;99389.16;6312779;20;3613954;-40
2023/11/22 03:03:30;;;;;;;;;44.67;39.00;;;;;3.77;100.00;99390.78;6310220;20;2872200;-39
2023/11/22 03:06:01;;;;;;;;;50.67;41.00;;;;;3.87;100.00;99393.94;6313057;20;2857724;-39
2023/11/22 03:08:30;;;;;;;;;67.67;49.33;;;;;2.56;100.00;99396.03;6307169;20;3632594;-39
2023/11/22 03:10:59;;;;;;;;;36.00;33.00;;;;;3.29;100.00;99400.53;6307792;20;2852403;-38
2023/11/22 03:13:29;;;;;;;;;39.00;32.00;;;;;3.43;100.00;99400.03;6274553;20;2863946;-39
2023/11/22 03:15:59;;;;;;;;;49.00;40.67;;;;;3.02;100.00;99396.22;6310116;20;2858711;-39
2023/11/22 03:18:29;;;;;;;;;42.33;36.00;;;;;3.19;100.00;99406.22;6309350;20;2869160;-40
2023/11/22 03:20:59;;;;;;;;;38.00;34.00;;;;;3.07;100.00;99403.06;6309286;20;2862908;-40
2023/11/22 03:23:29;;;;;;;;;47.33;32.00;;;;;3.16;100.00;99412.50;6309418;20;3620098;-39
2023/11/22 03:25:58;;;;;;;;;39.33;32.00;;;;;3.14;100.00;99411.69;6311464;20;3600309;-41
2023/11/22 03:28:30;;;;;;;;;39.33;33.67;;;;;2.99;100.00;99412.22;6312505;20;2858972;-40
2023/11/22 03:30:59;;;;;;;;;41.50;37.00;;;;;3.42;100.00;99421.28;6311396;20;2866982;-40
2023/11/22 03:33:28;;;;;;;;;48.33;35.33;;;;;3.41;100.00;99424.88;6282284;20;3629449;-40
2023/11/22 03:35:58;;;;;;;;;35.00;33.00;;;;;3.50;100.00;99414.81;6305528;20;2855487;-39
2023/11/22 03:38:27;;;;;;;;;35.00;31.00;;;;;3.47;100.00;99424.66;6310154;20;2846219;-39
2023/11/22 03:40:57;;;;;;;;;35.67;33.33;;;;;3.57;100.00;99431.34;6278326;20;2865076;-39
2023/11/22 03:43:26;;;;;;;;;40.00;34.50;;;;;3.28;100.00;99427.97;6311888;20;2861725;-39
2023/11/22 03:45:55;;;;;;;;;32.50;28.00;;;;;3.33;100.00;99426.94;6280296;20;2846114;-39
2023/11/22 03:48:25;;;;;;;;;40.00;35.00;;;;;3.15;100.00;99425.81;6279611;20;2877471;-41
2023/11/22 03:50:55;;;;;;;;;34.00;29.50;;;;;3.36;100.00;99437.44;6277329;20;2851399;-40
2023/11/22 03:53:23;;;;;;;;;39.00;31.00;;;;;3.26;100.00;99437.75;6277689;20;2850277;-45
2023/11/22 03:55:54;;;;;;;;;34.00;27.00;;;;;3.34;100.00;99436.63;6280971;20;2838814;-46
2023/11/22 03:58:23;;;;;;;;;27.33;22.33;;;;;3.32;100.00;99443.78;6281383;20;3583664;-43
2023/11/22 04:00:53;;;;;;;;;44.00;34.00;;;;;3.33;100.00;99437.56;6278959;20;2872133;-44
2023/11/22 04:03:22;;;;;;;;;34.00;27.00;;;;;3.44;100.00;99436.25;6311157;20;2849211;-43
2023/11/22 04:05:51;;;;;;;;;28.00;26.50;;;;;3.53;100.00;99445.69;6282139;20;2846151;-42
2023/11/22 04:08:19;;;;;;;;;29.50;25.00;;;;;3.34;100.00;99436.63;6281264;20;2841998;-43
2023/11/22 04:10:47;;;;;;;;;31.50;27.50;;;;;3.25;100.00;99435.19;6280680;20;2500338;-43
2023/11/22 04:13:16;;;;;;;;;30.00;26.00;;;;;3.38;100.00;99440.91;6280245;20;2851403;-50
2023/11/22 04:15:45;;;;;;;;;42.00;34.00;;;;;3.24;100.00;99439.63;6282023;20;2873322;-51
2023/11/22 04:18:14;;;;;;;;;39.50;30.00;;;;;3.09;100.00;99437.50;6280075;20;2869027;-51
2023/11/22 04:20:44;;;;;;;;;35.00;30.00;;;;;3.20;100.00;99442.44;6281411;20;2851774;-47
2023/11/22 04:23:14;;;;;;;;;33.50;26.00;;;;;2.97;100.00;99448.53;6279852;20;2854468;-52
2023/11/22 04:25:42;;;;;;;;;27.00;23.00;;;;;2.87;100.00;99445.38;6280101;20;2500309;-49
2023/11/22 04:28:10;;;;;;;;;31.50;27.00;;;;;3.15;100.00;99450.56;6278328;20;2496122;-51
2023/11/22 04:30:39;;;;;;;;;19.00;19.00;;;;;2.94;100.00;99443.34;6273657;20;3556801;-50
2023/11/22 04:33:08;;;;;;;;;34.50;23.50;;;;;2.55;100.00;99444.63;6312224;20;2871116;-49
2023/11/22 04:35:38;;;;;;;;;25.00;25.00;;;;;2.69;100.00;99445.97;6278148;20;2844130;-49
2023/11/22 04:38:06;;;;;;;;;34.00;28.00;;;;;2.90;100.00;99441.69;6276971;20;2500255;-53
2023/11/22 04:40:37;;;;;;;;;33.50;28.00;;;;;2.83;100.00;99441.06;6279488;20;2855572;-49
2023/11/22 04:43:06;;;;;;;;;78.67;59.00;;;;;2.98;100.00;99451.16;6279641;20;2895283;-53
2023/11/22 04:45:36;;;;;;;;;55.50;43.50;;;;;2.99;100.00;99455.53;6308838;20;2874291;-49
2023/11/22 04:48:08;;;;;;;;;44.50;39.00;;;;;3.07;100.00;99457.91;6277151;20;2862785;-52
2023/11/22 04:50:37;;;;;;;;;56.00;47.00;;;;;2.93;100.00;99470.78;6277638;20;2851375;-48
2023/11/22 04:53:07;;;;;;;;;49.33;41.33;;;;;2.99;100.00;99460.84;6278577;20;2867107;-50
2023/11/22 04:55:37;;;;;;;;;76.00;57.00;;;;;2.54;100.00;99469.41;6308729;20;3641921;-50
2023/11/22 04:58:07;;;;;;;;;64.67;51.00;;;;;2.91;100.00;99467.31;6310514;20;2874266;-51
2023/11/22 05:00:36;;;;;;;;;64.00;48.00;;;;;2.37;100.00;99477.91;6310815;20;2825269;-47
2023/11/22 05:03:05;;;;;;;;;38.00;31.50;;;;;2.80;100.00;99467.69;6280898;20;2854489;-51
2023/11/22 05:05:33;;;;;;;;;75.50;58.50;;;;;2.27;100.00;99471.16;6279439;20;2877347;-51
2023/11/22 05:08:03;;;;;;;;;43.00;39.00;;;;;2.85;100.00;99479.88;6279955;20;2856925;-53
2023/11/22 05:10:33;;;;;;;;;61.67;48.67;;;;;2.99;100.00;99482.03;6312891;20;2855474;-53
2023/11/22 05:13:04;;;;;;;;;55.00;46.67;;;;;2.29;100.00;99482.56;6313176;20;2874469;-47
2023/11/22 05:15:33;;;;;;;;;56.00;44.50;;;;;3.06;100.00;99482.72;6313502;20;2860788;-50
2023/11/22 05:18:02;;;;;;;;;38.00;34.00;;;;;2.45;100.00;99490.00;6286066;20;2860680;-47
2023/11/22 05:20:32;;;;;;;;;39.50;39.00;;;;;3.02;100.00;99492.53;6285008;20;2847298;-49
2023/11/22 05:23:01;;;;;;;;;67.50;54.50;;;;;3.05;100.00;99486.28;6281282;20;2860893;-54
2023/11/22 05:25:29;;;;;;;;;66.50;53.50;;;;;3.08;100.00;99491.47;6280387;20;2500317;-40
2023/11/22 05:27:59;;;;;;;;;73.00;56.00;;;;;3.10;100.00;99500.25;6283897;20;2885729;-40
2023/11/22 05:30:27;;;;;;;;;62.50;50.00;;;;;3.18;100.00;99502.63;6284601;20;2867965;-40
2023/11/22 05:32:57;;;;;;;;;59.50;46.00;;;;;3.26;100.00;99496.13;6280785;20;2857561;-43
2023/11/22 05:35:27;;;;;;;;;55.33;43.33;;;;;3.08;100.00;99502.06;6282299;20;2876474;-39
2023/11/22 05:37:57;;;;;;;;;47.67;40.67;;;;;3.21;100.00;99500.75;6314599;20;2869083;-40
2023/11/22 05:40:26;;;;;;;;;41.00;39.00;;;;;3.24;100.00;99505.09;6313671;20;2846125;-40
2023/11/22 05:42:55;;;;;;;;;43.00;35.33;;;;;3.24;100.00;99510.41;6282842;20;2875380;-40
2023/11/22 05:45:25;;;;;;;;;59.50;47.00;;;;;3.19;100.00;99509.69;6315609;20;2855592;-39
2023/11/22 05:47:54;;;;;;;;;63.00;51.00;;;;;3.28;100.00;99514.66;6283164;20;2873195;-41
2023/11/22 05:50:23;;;;;;;;;60.50;46.00;;;;;3.31;100.00;99514.56;6283323;20;2851390;-40
2023/11/22 05:52:52;;;;;;;;;75.33;59.67;;;;;3.19;100.00;99518.50;6280802;20;2871212;-40
2023/11/22 05:55:23;;;;;;;;;83.33;64.67;;;;;3.22;100.00;99521.06;6314475;20;3630854;-40
2023/11/22 05:57:53;;;;;;;;;92.33;68.67;;;;;3.43;100.00;99529.19;6313916;20;3651397;-39
2023/11/22 06:00:22;;;;;;;;;61.50;46.50;;;;;3.32;100.00;99532.22;6281273;20;2868026;-40
2023/11/22 06:02:51;;;;;;;;;34.50;33.50;;;;;3.41;100.00;99536.34;6278247;20;2855518;-39
2023/11/22 06:05:21;;;;;;;;;28.50;23.00;;;;;3.54;100.00;99539.44;6282496;20;2842016;-40
2023/11/22 06:07:51;;;;;;;;;40.50;38.50;;;;;3.60;100.00;99550.69;6283046;20;2848320;-50
2023/11/22 06:10:20;;;;;;;;;47.00;41.00;;;;;3.62;100.00;99551.50;6284814;20;2863859;-51
2023/11/22 06:12:49;;;;;;;;;45.00;41.00;;;;;3.66;100.00;99558.47;6281728;20;2857659;-49
2023/11/22 06:15:20;;;;;;;;;59.50;45.00;;;;;3.57;100.00;99564.06;6284198;20;2876314;-51
2023/11/22 06:17:50;;;;;;;;;45.67;31.33;;;;;3.73;100.00;99572.38;6283027;20;3628528;-51
2023/11/22 06:20:21;;;;;;;;;33.00;28.50;;;;;3.74;100.00;99572.31;6315507;20;2845174;-50
2023/11/22 06:22:50;;;;;;;;;25.50;23.50;;;;;3.73;100.00;99570.56;6279432;20;2500343;-51
2023/11/22 06:25:19;;;;;;;;;38.00;33.00;;;;;3.86;100.00;99571.00;6278591;20;2866938;-43
2023/11/22 06:27:48;;;;;;;;;34.00;31.50;;;;;3.96;100.00;99571.53;6283221;20;2845187;-40
2023/11/22 06:30:17;;;;;;;;;34.00;27.50;;;;;3.95;100.00;99577.78;6281725;20;2851303;-39
2023/11/22 06:32:45;;;;;;;;;28.00;25.00;;;;;3.89;100.00;99578.84;6279340;20;2500298;-39
2023/11/22 06:35:15;;;;;;;;;32.50;29.00;;;;;4.09;100.00;99587.91;6280665;20;2837798;-41
2023/11/22 06:37:45;;;;;;;;;50.67;36.33;;;;;4.10;100.00;99589.63;6283877;20;2888935;-40
2023/11/22 06:40:14;;;;;;;;;42.50;36.00;;;;;4.33;100.00;99596.75;6313449;20;2856545;-39
2023/11/22 06:42:44;;;;;;;;;48.67;41.33;;;;;4.57;100.00;99606.44;6278906;20;2867206;-42
2023/11/22 06:45:13;;;;;;;;;38.00;36.00;;;;;4.85;100.00;99613.38;6313588;20;2844180;-40
2023/11/22 06:47:44;;;;;;;;;31.00;31.00;;;;;4.83;100.00;99617.88;6280982;20;2727418;-42
2023/11/22 06:50:13;;;;;;;;;39.50;33.00;;;;;4.73;100.00;99630.66;6311747;20;2862958;-40
2023/11/22 06:52:44;;;;;;;;;38.33;31.33;;;;;5.88;100.00;99625.97;6277224;20;2857680;-41
2023/11/22 06:55:13;;;;;;;;;37.00;34.00;;;;;6.80;100.00;99624.50;6311218;20;2848665;-41
2023/11/22 06:57:42;;;;;;;;;38.67;33.33;;;;;6.38;100.00;99625.53;6283246;20;3604415;-40
2023/11/22 07:00:12;;;;;;;;;37.67;34.33;;;;;5.87;100.00;99637.56;6315357;20;3596132;-42
2023/11/22 07:02:42;;;;;;;;;39.00;35.00;;;;;7.77;98.88;99637.59;6277986;20;2858690;-41
2023/11/22 07:05:11;;;;;;;;;41.00;36.33;;;;;6.13;100.00;99635.56;6315030;20;3590900;-41
2023/11/22 07:07:40;;;;;;;;;43.00;35.50;;;;;5.35;100.00;99647.72;6277744;20;2855538;-40
2023/11/22 07:10:11;;;;;;;;;47.67;40.00;;;;;5.47;100.00;99657.84;6283141;20;2876353;-40
2023/11/22 07:12:43;;;;;;;;;39.00;36.67;;;;;5.54;100.00;99649.63;6311541;20;3591949;-40
2023/11/22 07:15:13;;;;;;;;;57.00;44.00;;;;;5.88;100.00;99652.59;6281281;20;2857578;-41
2023/11/22 07:17:43;;;;;;;;;55.67;43.00;;;;;5.73;100.00;99659.44;6281547;20;2860719;-41
2023/11/22 07:20:16;;;;;;;;;45.00;37.67;;;;;6.10;100.00;99659.69;6315813;20;3609625;-40
2023/11/22 07:22:46;;;;;;;;;37.00;33.00;;;;;6.21;100.00;99673.41;6279982;20;3606899;-41
2023/11/22 07:25:19;;;;;;;;;48.00;39.00;;;;;6.12;100.00;99671.16;6309037;20;2872278;-40
2023/11/22 07:27:48;;;;;;;;;45.33;37.00;;;;;6.42;100.00;99673.41;6316550;20;3606457;-40
2023/11/22 07:30:27;;;;;;;;;40.33;35.33;;;;;6.35;100.00;99675.50;6278173;20;2850237;-49
2023/11/22 07:32:56;;;;;;;;;36.67;35.33;;;;;6.42;100.00;99670.72;6310603;20;3620050;-40
2023/11/22 07:35:27;;;;;;;;;31.00;28.50;;;;;6.70;100.00;99663.22;6279228;20;2844043;-42
2023/11/22 07:37:58;;;;;;;;;35.00;32.00;;;;;6.69;100.00;99664.16;6282261;20;3601290;-41
2023/11/22 07:40:26;;;;;;;;;29.00;22.50;;;;;6.81;100.00;99666.25;6312274;20;2850237;-41
2023/11/22 07:42:54;;;;;;;;;22.50;19.50;;;;;6.95;100.00;99670.06;6278894;20;2492050;-41
2023/11/22 07:45:23;;;;;;;;;26.50;20.00;;;;;6.91;100.00;99672.03;6284042;20;2842103;-40
2023/11/22 07:47:52;;;;;;;;;22.00;21.00;;;;;7.48;100.00;99677.34;6280915;20;3568014;-40
2023/11/22 07:50:24;;;;;;;;;22.00;20.50;;;;;7.29;100.00;99690.69;6279481;20;2500262;-42
2023/11/22 07:52:52;;;;;;;;;25.00;19.50;;;;;7.44;100.00;99689.09;6274823;20;2491956;-39
2023/11/22 07:55:20;;;;;;;;;21.50;21.50;;;;;7.34;100.00;99698.50;6277070;20;2487887;-40
2023/11/22 07:57:50;;;;;;;;;21.00;19.00;;;;;7.70;100.00;99693.16;6278145;20;3564849;-41
2023/11/22 08:00:20;;;;;;;;;15.33;15.33;;;;;7.54;100.00;99700.19;6282015;20;3558665;-40
2023/11/22 08:02:48;;;;;;;;;15.50;14.50;;;;;7.76;100.00;99703.53;6279816;20;2815975;-40
2023/11/22 08:05:17;;;;;;;;;16.00;13.33;;;;;7.69;100.00;99697.66;6282184;20;3554408;-42
2023/11/22 08:07:45;;;;;;;;;15.00;15.00;;;;;7.84;100.00;99708.50;6313395;20;2805588;-41
2023/11/22 08:10:20;;;;;;;;;23.67;18.33;;;;;7.47;100.00;99702.28;6282822;20;3571113;-54
2023/11/22 08:12:50;;;;;;;;;18.33;16.33;;;;;7.90;100.00;99705.53;6277363;20;3549231;-48
2023/11/22 08:15:20;;;;;;;;;22.33;18.00;;;;;8.04;100.00;99711.03;6281444;20;3563797;-49
2023/11/22 08:17:49;;;;;;;;;17.33;15.33;;;;;8.13;100.00;99723.06;6280066;20;3541964;-47
2023/11/22 08:20:17;;;;;;;;;20.00;18.50;;;;;8.29;100.00;99728.50;6312972;20;2830460;-49
2023/11/22 08:22:49;;;;;;;;;16.50;14.00;;;;;8.53;100.00;99739.75;6281986;20;2810851;-52
2023/11/22 08:25:18;;;;;;;;;15.33;14.33;;;;;8.51;100.00;99739.84;6280885;20;3531522;-53
2023/11/22 08:27:47;;;;;;;;;20.00;17.67;;;;;8.40;100.00;99734.22;6313159;20;3566936;-51
2023/11/22 08:30:17;;;;;;;;;18.00;18.00;;;;;8.15;100.00;99737.22;6280491;20;3558621;-49
2023/11/22 08:32:53;;;;;;;;;17.00;15.00;;;;;8.20;100.00;99747.69;6312701;20;3531610;-48
2023/11/22 08:35:23;;;;;;;;;15.67;15.67;;;;;8.76;100.00;99736.75;6279523;20;3540991;-50
2023/11/22 08:37:53;;;;;;;;;13.67;12.33;;;;;8.24;100.00;99731.44;6280805;20;2813995;-51
2023/11/22 08:40:21;;;;;;;;;18.00;17.50;;;;;8.78;100.00;99736.66;6309899;20;2477492;-49
2023/11/22 08:42:50;;;;;;;;;25.00;21.00;;;;;8.93;99.93;99735.84;6281703;20;2838811;-46
2023/11/22 08:45:18;;;;;;;;;17.00;15.00;;;;;8.85;100.00;99743.44;6281051;20;2491973;-46
2023/11/22 08:47:46;;;;;;;;;18.50;18.50;;;;;8.58;100.00;99740.38;6288896;20;2827400;-46
2023/11/22 08:50:15;;;;;;;;;13.00;13.00;;;;;8.66;100.00;99735.53;6284586;20;2794076;-46
2023/11/22 08:52:44;;;;;;;;;16.00;15.50;;;;;8.10;100.00;99750.81;6312950;20;2820108;-45
2023/11/22 08:55:14;;;;;;;;;18.00;16.00;;;;;8.78;100.00;99744.69;6290535;20;2829518;-48
2023/11/22 08:57:43;;;;;;;;;31.33;30.00;;;;;8.57;100.00;99742.22;6320250;20;3586750;-46
2023/11/22 09:00:14;;;;;;;;;34.50;33.00;;;;;8.94;100.00;99740.25;6286155;20;2860873;-40
2023/11/22 09:02:43;;;;;;;;;23.00;19.50;;;;;9.32;97.56;99745.34;6284047;20;2839656;-46
2023/11/22 09:05:12;;;;;;;;;17.00;16.00;;;;;8.61;99.46;99750.97;6286044;20;3550306;-46
2023/11/22 09:07:41;;;;;;;;;17.00;17.00;;;;;9.30;99.54;99749.91;6288322;20;2831572;-48
2023/11/22 09:10:12;;;;;;;;;26.50;24.00;;;;;9.49;97.34;99754.25;6286359;20;2845073;-48
2023/11/22 09:12:44;;;;;;;;;21.50;18.50;;;;;9.20;97.70;99748.69;6285495;20;2830503;-48
2023/11/22 09:15:15;;;;;;;;;19.50;18.00;;;;;9.82;95.11;99752.34;6280589;20;2500420;-47
2023/11/22 09:17:46;;;;;;;;;19.50;18.50;;;;;9.52;96.90;99754.06;6286108;20;2828457;-46
2023/11/22 09:20:16;;;;;;;;;20.00;17.00;;;;;9.36;97.06;99749.56;6285040;20;2822191;-47
2023/11/22 09:22:52;;;;;;;;;19.00;16.33;;;;;8.99;98.98;99751.56;6288102;20;2833687;-46
2023/11/22 09:25:28;;;;;;;;;17.50;16.00;;;;;9.45;96.18;99756.22;6315506;20;2491962;-46
2023/11/22 09:28:01;;;;;;;;;19.00;17.00;;;;;9.54;97.36;99758.38;6285533;20;2835808;-46
2023/11/22 09:30:35;;;;;;;;;19.50;19.00;;;;;9.13;97.62;99758.00;6286218;20;2827375;-46
2023/11/22 09:33:14;;;;;;;;;11.40;11.20;;;;;9.94;95.23;99766.84;6310008;20;2797779;-45
2023/11/22 09:35:47;;;;;;;;;17.00;16.00;;;;;9.29;97.91;99766.06;6286933;20;2829539;-46
2023/11/22 09:38:16;;;;;;;;;20.50;19.00;;;;;9.60;97.66;99768.75;6285888;20;2839923;-46
2023/11/22 09:40:50;;;;;;;;;14.00;14.00;;;;;10.07;95.64;99778.59;6287737;20;2793052;-49
2023/11/22 09:43:23;;;;;;;;;18.00;16.00;;;;;9.72;94.86;99779.75;6288082;20;2827458;-46
2023/11/22 09:45:54;;;;;;;;;17.50;16.50;;;;;9.15;95.63;99775.72;6285696;20;2500298;-46
2023/11/22 09:48:27;;;;;;;;;17.00;14.00;;;;;8.98;96.19;99778.47;6287374;20;3547236;-46
2023/11/22 09:51:11;;;;;;;;;18.00;16.50;;;;;9.38;96.33;99782.50;6281946;20;2491942;-46
2023/11/22 09:53:56;;;;;;;;;24.00;21.00;;;;;9.59;96.44;99783.13;6284505;20;2492068;-47
2023/11/22 09:56:26;;;;;;;;;17.00;15.00;;;;;9.82;93.99;99779.16;6285714;20;2810708;-46
2023/11/22 09:59:00;;;;;;;;;19.50;17.50;;;;;10.05;93.50;99774.25;6283024;20;2835758;-47
2023/11/22 10:01:33;;;;;;;;;9.20;7.20;;;;;10.04;93.19;99786.81;6307824;20;2747237;-47
2023/11/22 10:04:05;;;;;;;;;19.67;16.33;;;;;9.84;93.02;99789.78;6316341;20;3562742;-48
2023/11/22 10:06:35;;;;;;;;;20.00;19.00;;;;;10.00;91.31;99800.50;6314755;20;2491985;-46
2023/11/22 10:09:07;;;;;;;;;25.00;19.50;;;;;10.13;90.27;99798.81;6286559;20;2836767;-46
2023/11/22 10:11:40;;;;;;;;;23.50;20.50;;;;;10.48;89.84;99806.69;6285197;20;2842056;-48
2023/11/22 10:14:09;;;;;;;;;23.00;20.00;;;;;10.29;90.23;99810.47;6285662;20;2831535;-46
2023/11/22 10:16:38;;;;;;;;;20.00;18.00;;;;;10.59;90.21;99806.91;6284041;20;2826319;-45
2023/11/22 10:19:07;;;;;;;;;20.50;20.50;;;;;10.83;88.89;99798.31;6285106;20;2846098;-40
2023/11/22 10:21:37;;;;;;;;;31.33;28.00;;;;;10.35;90.32;99802.97;6283249;20;3591926;-41
2023/11/22 10:24:09;;;;;;;;;18.00;18.00;;;;;10.21;91.24;99799.25;6280285;20;2494057;-40
2023/11/22 10:26:38;;;;;;;;;21.00;19.50;;;;;10.87;87.97;99802.53;6283827;20;2833702;-40
2023/11/22 10:29:08;;;;;;;;;20.00;18.50;;;;;10.18;86.70;99802.09;6285831;20;2832647;-41
2023/11/22 10:31:41;;;;;;;;;22.00;19.50;;;;;10.10;89.49;99809.75;6284429;20;2839889;-44
2023/11/22 10:34:10;;;;;;;;;20.00;19.50;;;;;10.21;90.71;99811.81;6284226;20;2835706;-41
2023/11/22 10:36:38;;;;;;;;;17.33;14.00;;;;;10.02;91.37;99815.53;6279082;20;3534640;-41
2023/11/22 10:39:15;;;;;;;;;20.50;20.00;;;;;10.76;88.57;99824.69;6282114;20;2837778;-41
2023/11/22 10:41:46;;;;;;;;;18.50;18.00;;;;;10.83;89.21;99831.41;6284243;20;2835753;-41
2023/11/22 10:44:20;;;;;;;;;18.00;17.00;;;;;10.35;89.13;99829.81;6283584;20;3567070;-41
2023/11/22 10:46:50;;;;;;;;;20.67;18.67;;;;;10.84;89.60;99835.81;6316254;20;3575238;-42
2023/11/22 10:49:21;;;;;;;;;22.00;18.00;;;;;10.66;88.62;99835.09;6315569;20;2500280;-41
2023/11/22 10:51:53;;;;;;;;;21.00;21.00;;;;;10.36;87.45;99843.16;6281099;20;2844152;-40
2023/11/22 10:54:24;;;;;;;;;19.00;19.00;;;;;11.27;85.41;99843.06;6281864;20;2841933;-40
2023/11/22 10:56:57;;;;;;;;;18.00;16.00;;;;;11.25;83.39;99851.25;6279607;20;2500308;-41
2023/11/22 10:59:29;;;;;;;;;28.00;22.00;;;;;10.91;85.66;99850.63;6281899;20;2838856;-41
2023/11/22 11:02:03;;;;;;;;;17.00;16.00;;;;;11.07;85.65;99845.19;6283155;20;2825302;-49
2023/11/22 11:04:47;;;;;;;;;20.00;17.50;;;;;11.48;83.77;99848.94;6283294;20;2835722;-49
2023/11/22 11:07:22;;;;;;;;;21.00;18.00;;;;;11.67;84.06;99846.84;6279440;20;2494072;-48
2023/11/22 11:09:51;;;;;;;;;24.50;21.00;;;;;11.69;83.90;99857.47;6282367;20;2822239;-40
2023/11/22 11:12:21;;;;;;;;;22.50;20.00;;;;;11.26;85.80;99852.13;6278944;20;2837893;-40
2023/11/22 11:14:51;;;;;;;;;25.00;24.00;;;;;10.90;85.95;99854.28;6286201;20;3594018;-40